Capitol Logistics 955

Operating for DHL



LTFM
Istanbul Airport
Istanbul, TR
EDDK
Cologne Bonn Airport
Cologne, DE

Route Details

Aircraft Information
Group: European Fleet
Types: A30F,A31F,B738
Route Data
Demand: M
Distance: 1064nm
Duration: 2h 45m
Recm'd Route: VADE4D VADEN N618 BAKLO ERDOM Y520 UTEKA/N0448F360 BABIT SUNIS NURMI SUBEN T161 ERNAS Y101 OSBIT L984 ASKIK T840 GULKO GULK32
Origin Wx: LTFM 270450Z 02006KT 330V040 9999 FEW040 20/17 Q1019 NOSIG RMK RWY17L 02005KT RWY34L 01006KT RWY16R 02004KT RWY36 02005KT RWY18 03004KT
Dest. Wx: EDDK 270520Z AUTO 26015KT 9999 -RADZ OVC014 14/11 Q1020 TEMPO 4000 RADZ BKN012
Notes:

Financial History
Total Freight: 272,462lbs
Average Load: 68,116lbs/flt
Fuel Used: 128,891lbs
Avg. Fuel Used: 32,223lbs/flt
Fuel Expense: $48,070
Avg. Fuel Expense: $12,017
Avg. Fuel Cost: $0.38/lbs
Total Gross Income: $693,337
Pilot Pay: $1,036
Total Expenses: $92,656
Total Revenue: $549,702
Average Revenue: $173,334.27